createdAt,value
2023-01-26T00:01:19.919Z,11.23
2023-01-26T00:03:47.614Z,10.80
2023-01-26T00:06:16.852Z,10.98
2023-01-26T00:08:45.697Z,11.13
2023-01-26T00:11:15.795Z,13.30
2023-01-26T00:13:43.201Z,13.65
2023-01-26T00:16:12.780Z,14.07
2023-01-26T00:18:40.615Z,11.77
2023-01-26T00:21:08.946Z,11.20
2023-01-26T00:23:36.167Z,12.10
2023-01-26T00:26:05.956Z,11.10
2023-01-26T00:28:32.822Z,11.70
2023-01-26T00:31:07.921Z,12.75
2023-01-26T00:33:34.740Z,13.32
2023-01-26T00:36:01.478Z,13.75
2023-01-26T00:38:28.396Z,13.88
2023-01-26T00:40:55.205Z,15.38
2023-01-26T00:43:22.111Z,13.43
2023-01-26T00:45:49.311Z,16.40
2023-01-26T00:48:16.410Z,16.25
2023-01-26T00:50:43.184Z,17.55
2023-01-26T00:53:10.440Z,15.00
2023-01-26T00:55:37.613Z,15.63
2023-01-26T00:58:06.512Z,15.50
2023-01-26T01:00:35.086Z,15.85
2023-01-26T01:03:02.227Z,15.30
2023-01-26T01:05:31.049Z,13.52
2023-01-26T01:07:58.375Z,14.90
2023-01-26T01:10:27.422Z,15.55
2023-01-26T01:12:54.887Z,15.63
2023-01-26T01:15:21.751Z,17.05
2023-01-26T01:17:48.624Z,16.92
2023-01-26T01:20:15.871Z,15.82
2023-01-26T01:22:42.653Z,16.05
2023-01-26T01:25:09.581Z,14.90
2023-01-26T01:27:36.397Z,13.75
2023-01-26T01:30:07.588Z,14.57
2023-01-26T01:32:36.176Z,14.60
2023-01-26T01:35:03.834Z,15.70
2023-01-26T01:37:31.108Z,14.30
2023-01-26T01:39:57.839Z,14.73
2023-01-26T01:42:26.546Z,15.38
2023-01-26T01:45:37.648Z,13.20
2023-01-26T01:48:10.148Z,13.80
2023-01-26T01:50:39.682Z,14.07
2023-01-26T01:53:11.817Z,14.38
2023-01-26T01:55:39.210Z,14.52
2023-01-26T01:58:06.977Z,15.25
2023-01-26T02:00:33.801Z,14.48
2023-01-26T02:03:11.882Z,15.70
2023-01-26T02:05:55.983Z,15.13
2023-01-26T02:08:29.347Z,14.80
2023-01-26T02:13:26.329Z,14.85
2023-01-26T02:15:54.986Z,14.55
2023-01-26T02:18:21.887Z,14.85
2023-01-26T02:20:54.480Z,15.20
2023-01-26T02:23:27.575Z,15.10
2023-01-26T02:25:54.643Z,16.20
2023-01-26T02:28:26.584Z,15.77
2023-01-26T02:30:54.831Z,15.90
2023-01-26T02:33:30.568Z,14.80
2023-01-26T02:35:57.425Z,13.52
2023-01-26T02:38:33.283Z,14.27
2023-01-26T02:41:07.486Z,14.23
2023-01-26T02:43:36.567Z,14.75
2023-01-26T02:46:03.700Z,13.50
2023-01-26T02:48:49.207Z,13.93
2023-01-26T02:51:16.004Z,14.80
2023-01-26T02:53:42.711Z,13.55
2023-01-26T02:56:09.431Z,14.98
2023-01-26T02:58:36.200Z,13.40
2023-01-26T03:01:03.159Z,13.05
2023-01-26T03:03:42.853Z,13.98
2023-01-26T03:06:11.113Z,13.85
2023-01-26T03:08:38.767Z,14.10
2023-01-26T03:11:07.288Z,12.95
2023-01-26T03:13:34.600Z,12.32
2023-01-26T03:16:06.801Z,13.40
2023-01-26T03:18:53.689Z,13.88
2023-01-26T03:21:39.193Z,12.93
2023-01-26T03:24:27.542Z,11.38
2023-01-26T03:27:12.719Z,13.13
2023-01-26T03:29:39.538Z,12.40
2023-01-26T03:32:06.367Z,10.50
2023-01-26T03:34:33.389Z,11.02
2023-01-26T03:37:00.349Z,11.73
2023-01-26T03:39:45.806Z,11.05
2023-01-26T03:42:31.790Z,10.55
2023-01-26T03:45:17.064Z,12.07
2023-01-26T03:48:02.412Z,11.50
2023-01-26T03:50:47.814Z,12.57
2023-01-26T03:53:38.952Z,11.73
2023-01-26T03:56:17.927Z,10.75
2023-01-26T03:58:50.990Z,12.13
2023-01-26T04:01:21.207Z,11.90
2023-01-26T04:04:08.179Z,12.23
2023-01-26T04:06:55.465Z,11.77
2023-01-26T04:09:23.106Z,8.25
2023-01-26T04:11:49.900Z,8.88
2023-01-26T04:14:47.687Z,9.25
2023-01-26T04:17:36.075Z,8.90
2023-01-26T04:20:21.888Z,8.02
2023-01-26T04:22:48.620Z,7.97
2023-01-26T04:25:18.092Z,7.78
2023-01-26T04:27:46.050Z,8.15
2023-01-26T04:30:15.104Z,8.45
2023-01-26T04:32:42.242Z,8.43
2023-01-26T04:35:10.263Z,9.65
2023-01-26T04:37:37.021Z,10.93
2023-01-26T04:40:04.491Z,11.13
2023-01-26T04:42:31.370Z,11.02
2023-01-26T04:44:58.135Z,10.65
2023-01-26T04:47:24.908Z,9.63
2023-01-26T04:49:51.638Z,10.20
2023-01-26T04:52:18.367Z,9.57
2023-01-26T04:54:45.093Z,7.80
2023-01-26T04:57:11.835Z,7.88
2023-01-26T04:59:38.673Z,9.25
2023-01-26T05:02:05.556Z,8.05
2023-01-26T05:04:32.543Z,8.80
2023-01-26T05:06:59.334Z,9.35
2023-01-26T05:09:26.149Z,7.80
2023-01-26T05:11:52.881Z,8.48
2023-01-26T05:14:19.638Z,9.15
2023-01-26T05:16:46.416Z,8.05
2023-01-26T05:19:13.168Z,9.68
2023-01-26T05:21:39.934Z,9.57
2023-01-26T05:24:08.456Z,9.90
2023-01-26T05:26:35.208Z,8.98
2023-01-26T05:29:02.023Z,9.00
2023-01-26T05:31:28.940Z,8.95
2023-01-26T05:33:55.668Z,8.52
2023-01-26T05:36:22.444Z,8.65
2023-01-26T05:38:49.184Z,9.00
2023-01-26T05:41:16.029Z,8.63
2023-01-26T05:43:42.789Z,8.48
2023-01-26T05:46:09.565Z,8.10
2023-01-26T05:48:36.319Z,8.60
2023-01-26T05:51:04.114Z,8.35
2023-01-26T05:53:30.840Z,8.18
2023-01-26T05:55:57.607Z,8.75
2023-01-26T05:58:24.343Z,8.80
2023-01-26T06:00:51.132Z,8.05
2023-01-26T06:03:17.897Z,8.43
2023-01-26T06:05:44.652Z,7.72
2023-01-26T06:08:11.401Z,7.47
2023-01-26T06:10:38.130Z,9.07
2023-01-26T06:13:04.835Z,8.27
2023-01-26T06:15:31.523Z,8.57
2023-01-26T06:18:01.066Z,9.63
2023-01-26T06:20:27.792Z,8.48
2023-01-26T06:22:54.600Z,9.18
2023-01-26T06:25:21.331Z,8.50
2023-01-26T06:27:48.080Z,9.38
2023-01-26T06:30:15.883Z,8.32
2023-01-26T06:32:42.660Z,8.82
2023-01-26T06:35:09.671Z,8.40
2023-01-26T06:37:36.364Z,8.43
2023-01-26T06:40:03.222Z,8.27
2023-01-26T06:42:30.399Z,8.65
2023-01-26T06:44:58.788Z,8.70
2023-01-26T06:47:25.883Z,7.82
2023-01-26T06:49:53.195Z,7.50
2023-01-26T06:52:28.263Z,8.60
2023-01-26T06:54:57.188Z,7.65
2023-01-26T06:57:23.970Z,7.65
2023-01-26T06:59:50.733Z,7.88
2023-01-26T07:02:20.090Z,8.48
2023-01-26T07:04:47.722Z,8.07
2023-01-26T07:07:14.671Z,8.40
2023-01-26T07:09:41.463Z,8.45
2023-01-26T07:12:09.370Z,8.15
2023-01-26T07:14:36.193Z,8.18
2023-01-26T07:17:03.477Z,7.90
2023-01-26T07:19:33.097Z,8.25
2023-01-26T07:22:00.634Z,8.70
2023-01-26T07:24:27.620Z,7.45
2023-01-26T07:26:54.959Z,8.00
2023-01-26T07:29:21.927Z,8.50
2023-01-26T07:31:48.772Z,7.97
2023-01-26T07:34:15.615Z,8.25
2023-01-26T07:36:42.451Z,7.88
2023-01-26T07:39:09.234Z,7.75
2023-01-26T07:41:36.182Z,7.43
2023-01-26T07:44:04.691Z,7.90
2023-01-26T07:46:31.838Z,7.18
2023-01-26T07:48:58.645Z,7.63
2023-01-26T07:51:25.382Z,7.63
2023-01-26T07:53:52.121Z,7.53
2023-01-26T07:56:20.493Z,6.93
2023-01-26T07:58:52.233Z,6.65
2023-01-26T08:01:19.429Z,6.93
2023-01-26T08:03:46.409Z,7.88
2023-01-26T08:06:16.073Z,6.75
2023-01-26T08:08:43.191Z,8.27
2023-01-26T08:11:11.212Z,8.07
2023-01-26T08:13:38.162Z,7.05
2023-01-26T08:16:12.604Z,8.93
2023-01-26T08:18:41.049Z,8.57
2023-01-26T08:21:08.021Z,8.77
2023-01-26T08:23:34.886Z,8.85
2023-01-26T08:26:03.622Z,9.20
2023-01-26T08:28:30.737Z,9.20
2023-01-26T08:31:03.359Z,16.50
2023-01-26T08:33:31.507Z,12.18
2023-01-26T08:36:05.998Z,7.53
2023-01-26T08:38:33.558Z,7.95
2023-01-26T08:41:01.750Z,8.15
2023-01-26T08:43:29.138Z,9.43
2023-01-26T08:45:56.044Z,16.98
2023-01-26T08:48:22.914Z,15.00
2023-01-26T08:50:54.666Z,13.00
2023-01-26T08:53:21.922Z,10.60
2023-01-26T08:55:48.780Z,12.43
2023-01-26T08:58:16.029Z,12.13
2023-01-26T09:00:42.820Z,9.75
2023-01-26T09:03:09.652Z,11.07
2023-01-26T09:05:38.983Z,12.73
2023-01-26T09:08:07.468Z,12.45
2023-01-26T09:10:34.253Z,9.05
2023-01-26T09:13:01.401Z,9.93
2023-01-26T09:15:28.597Z,9.27
2023-01-26T09:17:55.405Z,9.35
2023-01-26T09:20:22.328Z,8.30
2023-01-26T09:22:49.212Z,7.75
2023-01-26T09:25:15.932Z,8.57
2023-01-26T09:27:43.159Z,7.80
2023-01-26T09:30:10.593Z,8.63
2023-01-26T09:32:37.453Z,7.05
2023-01-26T09:35:04.501Z,6.95
2023-01-26T09:37:31.263Z,10.85
2023-01-26T09:39:57.955Z,12.15
2023-01-26T09:43:07.215Z,9.98
2023-01-26T09:45:46.276Z,8.93
2023-01-26T09:48:26.597Z,10.55
2023-01-26T09:51:19.679Z,8.88
2023-01-26T09:54:04.307Z,8.88
2023-01-26T09:56:32.874Z,7.25
2023-01-26T09:59:24.778Z,8.98
2023-01-26T10:02:04.731Z,8.15
2023-01-26T10:04:36.764Z,6.93
2023-01-26T10:07:09.651Z,6.68
2023-01-26T10:09:38.660Z,6.63
2023-01-26T10:12:20.906Z,6.72
2023-01-26T10:15:11.265Z,6.75
2023-01-26T10:17:43.850Z,6.07
2023-01-26T10:20:31.739Z,6.93
2023-01-26T10:23:04.349Z,7.00
2023-01-26T10:25:37.102Z,6.97
2023-01-26T10:28:14.189Z,7.10
2023-01-26T10:30:42.440Z,6.15
2023-01-26T10:33:35.627Z,7.43
2023-01-26T10:36:04.382Z,5.90
2023-01-26T10:38:34.141Z,5.38
2023-01-26T10:41:06.443Z,5.97
2023-01-26T10:43:38.241Z,7.47
2023-01-26T10:46:05.253Z,6.32
2023-01-26T10:48:32.502Z,7.55
2023-01-26T10:51:16.025Z,6.55
2023-01-26T10:53:42.762Z,6.53
2023-01-26T10:56:16.244Z,5.40
2023-01-26T10:58:55.879Z,5.80
2023-01-26T11:01:27.405Z,6.63
2023-01-26T11:04:05.365Z,5.35
2023-01-26T11:06:32.863Z,6.00
2023-01-26T11:09:29.329Z,6.18
2023-01-26T11:12:05.719Z,5.70
2023-01-26T11:14:33.301Z,5.47
2023-01-26T11:17:14.415Z,5.10
2023-01-26T11:20:09.923Z,5.32
2023-01-26T11:22:48.328Z,5.43
2023-01-26T11:25:37.792Z,4.72
2023-01-26T11:28:37.890Z,3.95
2023-01-26T11:31:35.071Z,4.47
2023-01-26T11:34:31.918Z,4.78
2023-01-26T11:36:58.689Z,4.70
2023-01-26T11:39:46.211Z,4.00
2023-01-26T11:42:35.805Z,4.18
2023-01-26T11:45:19.384Z,4.10
2023-01-26T11:50:25.478Z,4.45
2023-01-26T11:53:23.990Z,3.90
2023-01-26T11:56:07.610Z,3.70
2023-01-26T12:01:31.306Z,3.88
2023-01-26T12:03:58.491Z,4.07
2023-01-26T12:06:32.168Z,3.63
2023-01-26T12:09:33.005Z,4.55
2023-01-26T12:12:17.675Z,4.00
2023-01-26T12:14:52.572Z,4.78
2023-01-26T12:17:47.845Z,4.20
2023-01-26T12:20:23.559Z,4.13
2023-01-26T12:23:07.946Z,3.85
2023-01-26T12:25:50.692Z,4.60
2023-01-26T12:28:22.521Z,4.68
2023-01-26T12:31:27.126Z,3.92
2023-01-26T12:33:56.328Z,3.92
2023-01-26T12:36:44.790Z,4.13
2023-01-26T12:39:26.366Z,4.10
2023-01-26T12:42:14.693Z,3.88
2023-01-26T12:44:46.179Z,4.18
2023-01-26T12:47:19.952Z,3.92
2023-01-26T12:49:50.932Z,3.75
2023-01-26T12:52:40.840Z,3.83
2023-01-26T12:55:19.653Z,3.67
2023-01-26T12:58:00.704Z,3.88
2023-01-26T13:00:33.917Z,4.22
2023-01-26T13:03:21.883Z,4.65
2023-01-26T13:05:59.318Z,3.83
2023-01-26T13:08:31.971Z,5.97
2023-01-26T13:11:04.769Z,7.90
2023-01-26T13:13:32.798Z,4.20
2023-01-26T13:16:17.985Z,3.72
2023-01-26T13:18:55.670Z,4.15
2023-01-26T13:21:32.519Z,4.30
2023-01-26T13:23:59.459Z,3.70
2023-01-26T13:26:32.140Z,4.45
2023-01-26T13:29:32.883Z,3.60
2023-01-26T13:32:10.083Z,4.47
2023-01-26T13:34:43.598Z,4.38
2023-01-26T13:37:20.171Z,4.97
2023-01-26T13:39:52.712Z,4.50
2023-01-26T13:42:24.222Z,5.38
2023-01-26T13:45:00.573Z,4.75
2023-01-26T13:47:41.031Z,5.97
2023-01-26T13:50:30.688Z,5.93
2023-01-26T13:52:57.944Z,5.85
2023-01-26T13:55:31.040Z,6.15
2023-01-26T13:58:10.701Z,5.10
2023-01-26T14:00:37.649Z,4.53
2023-01-26T14:03:04.511Z,5.18
2023-01-26T14:05:32.128Z,5.25
2023-01-26T14:07:59.788Z,5.35
2023-01-26T14:10:27.889Z,4.47
2023-01-26T14:12:56.650Z,4.50
2023-01-26T14:15:25.623Z,4.35
2023-01-26T14:18:05.093Z,4.22
2023-01-26T14:20:36.624Z,5.22
2023-01-26T14:23:18.523Z,4.45
2023-01-26T14:25:55.922Z,4.63
2023-01-26T14:28:25.707Z,4.25
2023-01-26T14:30:57.861Z,4.38
2023-01-26T14:33:25.116Z,5.07
2023-01-26T14:36:00.676Z,4.45
2023-01-26T14:38:43.571Z,4.65
2023-01-26T14:43:44.610Z,4.60
2023-01-26T14:46:18.336Z,4.97
2023-01-26T14:48:56.640Z,4.32
2023-01-26T14:51:25.472Z,4.15
2023-01-26T14:53:59.599Z,5.38
2023-01-26T14:56:33.759Z,4.65
2023-01-26T14:59:01.549Z,4.25
2023-01-26T15:01:29.625Z,5.45
2023-01-26T15:03:59.977Z,5.70
2023-01-26T15:06:29.467Z,6.78
2023-01-26T15:09:01.717Z,4.32
2023-01-26T15:11:58.419Z,4.68
2023-01-26T15:14:31.090Z,5.97
2023-01-26T15:16:57.867Z,6.63
2023-01-26T15:19:27.279Z,5.43
2023-01-26T15:21:54.090Z,5.55
2023-01-26T15:24:20.961Z,5.47
2023-01-26T15:26:49.935Z,3.90
2023-01-26T15:29:30.921Z,4.45
2023-01-26T15:31:58.739Z,4.32
2023-01-26T15:34:39.130Z,3.92
2023-01-26T15:37:29.730Z,4.45
2023-01-26T15:39:56.741Z,4.13
2023-01-26T15:42:26.911Z,4.15
2023-01-26T15:44:53.727Z,4.50
2023-01-26T15:47:20.527Z,4.68
2023-01-26T15:49:47.548Z,4.88
2023-01-26T15:52:34.606Z,5.00
2023-01-26T15:55:01.364Z,4.43
2023-01-26T15:57:28.327Z,4.63
2023-01-26T15:59:55.014Z,4.45
2023-01-26T16:02:21.940Z,4.82
2023-01-26T16:04:48.808Z,4.22
2023-01-26T16:07:17.498Z,4.40
2023-01-26T16:09:44.346Z,4.40
2023-01-26T16:12:30.535Z,4.95
2023-01-26T16:14:58.457Z,5.22
2023-01-26T16:17:25.200Z,5.05
2023-01-26T16:19:52.184Z,4.65
2023-01-26T16:22:19.009Z,5.47
2023-01-26T16:24:46.748Z,5.20
2023-01-26T16:27:13.482Z,5.70
2023-01-26T16:29:40.306Z,5.30
2023-01-26T16:32:27.328Z,5.13
2023-01-26T16:34:54.993Z,5.00
2023-01-26T16:37:21.780Z,5.85
2023-01-26T16:39:50.693Z,5.38
2023-01-26T16:42:19.825Z,5.22
2023-01-26T16:44:47.150Z,6.30
2023-01-26T16:47:13.871Z,5.40
2023-01-26T16:49:40.624Z,6.55
2023-01-26T16:52:09.383Z,6.95
2023-01-26T16:54:36.326Z,6.22
2023-01-26T16:57:03.182Z,7.10
2023-01-26T16:59:30.192Z,6.88
2023-01-26T17:01:57.383Z,7.63
2023-01-26T17:04:25.192Z,7.38
2023-01-26T17:06:52.139Z,7.32
2023-01-26T17:09:20.514Z,7.00
2023-01-26T17:11:47.289Z,7.65
2023-01-26T17:14:14.032Z,8.10
2023-01-26T17:16:40.897Z,7.97
2023-01-26T17:19:09.245Z,6.75
2023-01-26T17:21:36.371Z,6.70
2023-01-26T17:24:03.597Z,7.55
2023-01-26T17:26:30.410Z,7.85
2023-01-26T17:28:57.175Z,8.15
2023-01-26T17:31:24.715Z,7.43
2023-01-26T17:33:51.531Z,7.30
2023-01-26T17:36:19.315Z,7.80
2023-01-26T17:38:49.948Z,7.60
2023-01-26T17:41:17.368Z,7.40
2023-01-26T17:43:44.484Z,7.43
2023-01-26T17:46:16.513Z,7.20
2023-01-26T17:48:45.367Z,7.20
2023-01-26T17:51:21.015Z,7.30
2023-01-26T17:53:54.147Z,7.15
2023-01-26T17:56:22.223Z,6.65
2023-01-26T17:58:50.928Z,7.15
2023-01-26T18:01:18.765Z,7.15
2023-01-26T18:03:49.357Z,7.10
2023-01-26T18:06:17.199Z,7.55
2023-01-26T18:08:44.451Z,10.48
2023-01-26T18:11:13.214Z,9.07
2023-01-26T18:13:40.571Z,8.90
2023-01-26T18:16:09.072Z,9.02
2023-01-26T18:18:36.191Z,9.57
2023-01-26T18:21:22.454Z,10.32
2023-01-26T18:23:51.950Z,8.45
2023-01-26T18:26:21.522Z,9.20
2023-01-26T18:28:49.699Z,8.45
2023-01-26T18:31:19.508Z,8.55
2023-01-26T18:33:47.009Z,10.05
2023-01-26T18:36:16.619Z,9.43
2023-01-26T18:38:48.149Z,9.68
2023-01-26T18:41:16.370Z,10.57
2023-01-26T18:43:43.824Z,9.07
2023-01-26T18:46:12.418Z,9.30
2023-01-26T18:48:39.230Z,10.43
2023-01-26T18:51:06.138Z,9.57
2023-01-26T18:53:33.565Z,9.98
2023-01-26T18:56:04.984Z,10.18
2023-01-26T18:58:32.517Z,9.73
2023-01-26T19:01:00.906Z,9.25
2023-01-26T19:03:27.972Z,9.52
2023-01-26T19:05:54.708Z,10.32
2023-01-26T19:08:24.297Z,11.32
2023-01-26T19:10:51.512Z,11.05
2023-01-26T19:13:18.314Z,10.55
2023-01-26T19:15:49.027Z,10.15
2023-01-26T19:18:16.149Z,10.63
2023-01-26T19:20:42.859Z,11.15
2023-01-26T19:23:10.305Z,10.18
2023-01-26T19:25:37.498Z,10.43
2023-01-26T19:28:04.785Z,10.77
2023-01-26T19:30:33.139Z,10.55
2023-01-26T19:33:18.431Z,10.30
2023-01-26T19:35:45.296Z,11.35
2023-01-26T19:38:12.024Z,13.45
2023-01-26T19:40:38.912Z,12.88
2023-01-26T19:43:06.582Z,11.65
2023-01-26T19:45:33.612Z,11.63
2023-01-26T19:48:00.339Z,11.20
2023-01-26T19:50:27.171Z,11.82
2023-01-26T19:52:53.944Z,12.32
2023-01-26T19:55:20.685Z,17.30
2023-01-26T19:57:47.464Z,12.27
2023-01-26T20:00:15.023Z,14.23
2023-01-26T20:02:41.913Z,11.88
2023-01-26T20:05:09.487Z,11.07
2023-01-26T20:07:37.608Z,12.00
2023-01-26T20:10:06.220Z,11.43
2023-01-26T20:12:33.413Z,10.90
2023-01-26T20:15:00.812Z,10.75
2023-01-26T20:17:27.646Z,11.07
2023-01-26T20:19:55.228Z,10.98
2023-01-26T20:22:23.768Z,10.93
2023-01-26T20:24:50.476Z,9.95
2023-01-26T20:27:17.379Z,9.50
2023-01-26T20:29:44.112Z,10.13
2023-01-26T20:32:10.862Z,10.43
2023-01-26T20:34:40.991Z,10.45
2023-01-26T20:37:08.955Z,11.18
2023-01-26T20:39:35.680Z,10.88
2023-01-26T20:42:02.441Z,11.95
2023-01-26T20:44:29.773Z,11.57
2023-01-26T20:46:57.265Z,10.98
2023-01-26T20:49:24.388Z,10.68
2023-01-26T20:51:51.127Z,12.13
2023-01-26T20:54:17.948Z,10.15
2023-01-26T20:56:49.826Z,11.02
2023-01-26T20:59:16.751Z,10.77
2023-01-26T21:01:43.552Z,11.20
2023-01-26T21:04:10.622Z,11.13
2023-01-26T21:06:38.848Z,10.90
2023-01-26T21:09:05.670Z,10.50
2023-01-26T21:11:32.982Z,11.48
2023-01-26T21:14:01.626Z,10.60
2023-01-26T21:16:30.016Z,12.15
2023-01-26T21:18:57.101Z,11.93
2023-01-26T21:21:24.282Z,11.75
2023-01-26T21:23:51.126Z,11.15
2023-01-26T21:26:22.188Z,11.63
2023-01-26T21:28:51.912Z,12.43
2023-01-26T21:31:20.629Z,12.25
2023-01-26T21:33:48.755Z,11.80
2023-01-26T21:36:23.605Z,12.13
2023-01-26T21:38:52.375Z,13.98
2023-01-26T21:41:46.215Z,12.27
2023-01-26T21:46:41.966Z,12.80
2023-01-26T21:49:10.224Z,17.77
2023-01-26T21:51:55.493Z,14.93
2023-01-26T21:54:23.014Z,14.55
2023-01-26T21:56:50.023Z,16.50
2023-01-26T21:59:17.896Z,17.70
2023-01-26T22:01:55.807Z,16.08
2023-01-26T22:04:26.265Z,17.15
2023-01-26T22:06:53.607Z,14.57
2023-01-26T22:09:21.378Z,15.48
2023-01-26T22:11:50.487Z,14.80
2023-01-26T22:14:20.403Z,13.52
2023-01-26T22:16:47.853Z,14.40
2023-01-26T22:19:14.859Z,14.40
2023-01-26T22:21:42.037Z,15.27
2023-01-26T22:24:11.928Z,16.08
2023-01-26T22:26:39.195Z,15.63
2023-01-26T22:29:06.174Z,15.77
2023-01-26T22:31:33.286Z,14.93
2023-01-26T22:34:00.673Z,15.18
2023-01-26T22:36:28.085Z,16.50
2023-01-26T22:38:55.105Z,14.43
2023-01-26T22:41:24.403Z,13.82
2023-01-26T22:43:54.237Z,14.93
2023-01-26T22:46:22.912Z,14.75
2023-01-26T22:48:50.381Z,14.68
2023-01-26T22:51:19.787Z,14.32
2023-01-26T22:53:49.019Z,14.20
2023-01-26T22:56:16.716Z,14.63
2023-01-26T22:58:57.058Z,15.50
2023-01-26T23:01:26.754Z,13.82
2023-01-26T23:03:55.035Z,15.02
2023-01-26T23:06:22.045Z,14.73
2023-01-26T23:08:48.922Z,14.35
2023-01-26T23:11:18.618Z,14.95
2023-01-26T23:13:47.350Z,13.43
2023-01-26T23:16:14.381Z,15.13
2023-01-26T23:18:42.089Z,15.25
2023-01-26T23:21:09.533Z,15.32
2023-01-26T23:23:36.526Z,14.73
2023-01-26T23:26:03.443Z,13.27
2023-01-26T23:28:33.582Z,13.82
2023-01-26T23:31:01.295Z,14.20
2023-01-26T23:33:30.212Z,14.55
2023-01-26T23:35:57.276Z,16.48
2023-01-26T23:38:26.068Z,14.65
2023-01-26T23:40:53.307Z,14.73
2023-01-26T23:43:21.273Z,13.50
2023-01-26T23:45:49.369Z,14.40
2023-01-26T23:48:17.197Z,13.82
2023-01-26T23:50:43.921Z,14.18
2023-01-26T23:53:10.654Z,14.27
2023-01-26T23:55:41.292Z,15.70
2023-01-26T23:58:08.480Z,13.90
